»·PEaware :: N408TF KHHR-KVCV

N408TF :: KHHR-KVCV

FLIGHT INFORMATION

Flight Status: Arrived
Operator: Privately registered:
United States
More flights under this callsign
Pilot: Dan S. (31216)
Aircraft: CESSNA 182 SKYLANE
(C182)
More flights by this aircraft type
Origin: KHHR Northrop/Hawthorne Mun
United States
Destination: KVCV Socal Logistics
United States
More flights between these airports :: More routes between these airports
Route: +LAX V165 LANGE V518 PMD
File this flight plan on PilotEdge
Remarks: TEC route SCTP30
Altitude:
(Current/Filed)
7,000ft
Speed:
(Current/Filed)
140kts
Departed: 19-Nov-20 09:08 PM
Arrived: 19-Nov-20 09:56 PM
Distance/Time
Traveled:
62nm/0:48
Distance/Time
To Go:
Arrived

Flight Plot

Page will automatically refresh every two minutes.


Map Options




Map Legend


Flown Route
Filed Route
Departure Airport
Arrival Airport
Navaid (VOR, NDB)
Fix

Horizontal Profiles

Position Reports

Time Latitude Longitude Heading Altitude Ground
Speed
19-Nov-20 20:57 33.922476 -118.328321 247 58ft 0kts
19-Nov-20 20:58 33.922476 -118.328321 247 58ft 0kts
19-Nov-20 20:59 33.922476 -118.328321 247 58ft 0kts
19-Nov-20 21:00 33.922476 -118.328321 247 58ft 0kts
19-Nov-20 21:01 33.922476 -118.328321 247 58ft 0kts
19-Nov-20 21:02 33.922476 -118.328321 247 58ft 0kts
19-Nov-20 21:03 33.922476 -118.328321 247 58ft 0kts
19-Nov-20 21:04 33.922745 -118.328053 90 58ft 14kts
19-Nov-20 21:05 33.922766 -118.327342 79 59ft 3kts
19-Nov-20 21:06 33.923122 -118.327278 309 59ft 8kts
19-Nov-20 21:07 33.922182 -118.343577 236 749ft 74kts
19-Nov-20 21:08 33.902479 -118.366749 222 1966ft 103kts
19-Nov-20 21:09 33.878901 -118.392713 222 1991ft 134kts
19-Nov-20 21:10 33.849491 -118.410652 145 2423ft 105kts
19-Nov-20 21:11 33.824000 -118.389495 135 3051ft 125kts
19-Nov-20 21:12 33.830638 -118.368503 327 3701ft 74kts
19-Nov-20 21:13 33.849945 -118.379895 322 4435ft 81kts
19-Nov-20 21:14 33.872524 -118.394119 333 5020ft 103kts
19-Nov-20 21:15 33.897868 -118.409834 333 5819ft 102kts
19-Nov-20 21:16 33.926093 -118.427417 333 6001ft 135kts
19-Nov-20 21:17 33.960427 -118.449509 332 5999ft 144kts
19-Nov-20 21:18 33.995837 -118.472339 332 5999ft 145kts
19-Nov-20 21:19 34.031288 -118.495198 332 5999ft 145kts
19-Nov-20 21:20 34.066909 -118.518072 333 5999ft 145kts
19-Nov-20 21:21 34.102247 -118.540857 332 5999ft 145kts
19-Nov-20 21:22 34.134643 -118.537957 12 6962ft 108kts
19-Nov-20 21:23 34.169410 -118.527013 13 7001ft 141kts
19-Nov-20 21:24 34.208214 -118.514887 13 6999ft 145kts
19-Nov-20 21:25 34.247221 -118.502705 13 6999ft 145kts
19-Nov-20 21:26 34.286058 -118.490561 12 6999ft 143kts
19-Nov-20 21:27 34.324670 -118.478509 12 6999ft 143kts
19-Nov-20 21:28 34.363371 -118.466398 12 7030ft 142kts
19-Nov-20 21:29 34.395114 -118.438760 47 7036ft 148kts
19-Nov-20 21:30 34.420875 -118.399515 49 7036ft 149kts
19-Nov-20 21:31 34.446106 -118.359689 49 7036ft 149kts
19-Nov-20 21:32 34.471087 -118.319919 49 7081ft 148kts
19-Nov-20 21:33 34.496265 -118.280009 49 7082ft 149kts
19-Nov-20 21:34 34.521396 -118.240014 49 7082ft 149kts
19-Nov-20 21:35 34.546745 -118.199437 50 6999ft 151kts
19-Nov-20 21:36 34.571770 -118.159378 53 6999ft 148kts
19-Nov-20 21:37 34.597322 -118.118518 53 7000ft 153kts
19-Nov-20 21:38 34.623119 -118.077055 53 7000ft 154kts
19-Nov-20 21:39 34.628847 -118.027666 93 7006ft 150kts
19-Nov-20 21:40 34.627109 -117.976956 94 7018ft 150kts
19-Nov-20 21:41 34.624822 -117.926174 95 7018ft 150kts
19-Nov-20 21:42 34.622367 -117.875321 95 7018ft 150kts
19-Nov-20 21:43 34.619882 -117.824463 95 7001ft 151kts
19-Nov-20 21:44 34.617371 -117.773340 95 7000ft 151kts
19-Nov-20 21:45 34.614759 -117.722518 90 7000ft 151kts
19-Nov-20 21:46 34.612269 -117.670916 91 6889ft 158kts
19-Nov-20 21:47 34.609484 -117.616052 92 6394ft 165kts
19-Nov-20 21:48 34.606653 -117.560545 92 5896ft 164kts
19-Nov-20 21:49 34.603812 -117.505359 92 5422ft 162kts
19-Nov-20 21:50 34.600963 -117.450649 92 4933ft 162kts
19-Nov-20 21:51 34.609712 -117.400165 43 4186ft 148kts
19-Nov-20 21:52 34.632715 -117.368910 72 3441ft 111kts
19-Nov-20 21:53 34.615255 -117.357876 189 3120ft 77kts
19-Nov-20 21:54 34.597573 -117.370073 222 2856ft 68kts
19-Nov-20 21:55 34.592590 -117.372274 150 2864ft 19kts

Navigation Log

Ident Type
Flight plan parsing failed, navigation log unavailable